weather.gov     
National Weather Service

Terminal Aerodrome Forecast
NWS Homepage
This page is being discontinued on March 12, 2014.
The same data is available at this site. Please update your bookmarks.
Thank you, and we apologize for the inconvenience.
Please send an email to SR-SRH.Webmaster@noaa.gov with any concerns.


Current Version
Previous Version:    01  02  03  04  05  06  07  08  09  10  11  12  13  14  15  16  17  18  19  20  21  22  23  
[Printable]
293
FTUS44 KSHV 311700
TAFTXK
TAF
KTXK 311727Z 3118/0118 09003KT 6SM BR FEW006 BKN017 OVC030
      TEMPO 3118/3120 2SM BR OVC015
     FM312000 VRB06KT P6SM VCTS OVC030CB
      TEMPO 3120/3124 3SM -TSRA BR OVC015CB
     FM010000 VRB06KT P6SM VCTS OVC015CB
     FM010600 VRB06KT P6SM -SHRA OVC015
      TEMPO 0108/0112 4SM BR OVC003
     FM011500 05005KT P6SM OVC015=


U.S. Dept. of Commerce
NOAA National Weather Service
1325 East West Highway
Silver Spring, MD 20910
E-mail: w-nws.webmaster@noaa.gov
Page last modified: May 16, 2007
NATIONAL WEATHER SERVICE: for Safety, for Work, for Fun - FOR LIFE